sensor_id;sensor_type;location;lat;lon;timestamp;pressure;altitude;pressure_sealevel;temperature;humidity
70370;BME280;57790;51.356;-2.906;2023-05-18T00:00:21;102894.63;;;17.29;100.00
70370;BME280;57790;51.356;-2.906;2023-05-18T00:03:22;102892.56;;;17.23;100.00
70370;BME280;57790;51.356;-2.906;2023-05-18T00:06:23;102896.25;;;17.22;100.00
70370;BME280;57790;51.356;-2.906;2023-05-18T00:09:24;102887.78;;;17.17;100.00
70370;BME280;57790;51.356;-2.906;2023-05-18T00:12:25;102898.34;;;17.18;100.00
70370;BME280;57790;51.356;-2.906;2023-05-18T00:15:25;102894.47;;;17.13;100.00
70370;BME280;57790;51.356;-2.906;2023-05-18T00:18:26;102894.47;;;17.13;100.00
70370;BME280;57790;51.356;-2.906;2023-05-18T00:21:27;102896.28;;;17.12;100.00
70370;BME280;57790;51.356;-2.906;2023-05-18T00:24:29;102897.72;;;17.07;100.00
70370;BME280;57790;51.356;-2.906;2023-05-18T00:27:30;102898.59;;;17.07;100.00
70370;BME280;57790;51.356;-2.906;2023-05-18T00:30:31;102895.38;;;17.04;100.00
70370;BME280;57790;51.356;-2.906;2023-05-18T00:33:32;102894.53;;;17.03;100.00
70370;BME280;57790;51.356;-2.906;2023-05-18T00:36:33;102902.03;;;17.00;100.00
70370;BME280;57790;51.356;-2.906;2023-05-18T00:39:33;102893.84;;;17.01;100.00
70370;BME280;57790;51.356;-2.906;2023-05-18T00:42:34;102896.81;;;16.98;100.00
70370;BME280;57790;51.356;-2.906;2023-05-18T00:45:34;102889.09;;;16.95;100.00
70370;BME280;57790;51.356;-2.906;2023-05-18T00:48:35;102886.56;;;16.93;100.00
70370;BME280;57790;51.356;-2.906;2023-05-18T00:51:36;102901.81;;;16.93;100.00
70370;BME280;57790;51.356;-2.906;2023-05-18T00:54:37;102903.66;;;16.92;100.00
70370;BME280;57790;51.356;-2.906;2023-05-18T01:01:26;102902.00;;;16.82;100.00
70370;BME280;57790;51.356;-2.906;2023-05-18T01:04:30;102897.50;;;16.82;100.00
70370;BME280;57790;51.356;-2.906;2023-05-18T01:07:30;102899.34;;;16.82;100.00
70370;BME280;57790;51.356;-2.906;2023-05-18T01:10:36;102910.03;;;16.82;100.00
70370;BME280;57790;51.356;-2.906;2023-05-18T01:13:46;102909.19;;;16.81;100.00
70370;BME280;57790;51.356;-2.906;2023-05-18T01:16:59;102909.94;;;16.74;100.00
70370;BME280;57790;51.356;-2.906;2023-05-18T01:23:46;102898.38;;;16.73;100.00
70370;BME280;57790;51.356;-2.906;2023-05-18T01:26:53;102900.38;;;16.71;100.00
70370;BME280;57790;51.356;-2.906;2023-05-18T01:29:57;102895.16;;;16.70;100.00
70370;BME280;57790;51.356;-2.906;2023-05-18T01:32:57;102893.63;;;16.67;100.00
70370;BME280;57790;51.356;-2.906;2023-05-18T01:35:57;102894.47;;;16.68;100.00
70370;BME280;57790;51.356;-2.906;2023-05-18T01:38:59;102891.22;;;16.64;100.00
70370;BME280;57790;51.356;-2.906;2023-05-18T01:42:06;102903.06;;;16.61;100.00
70370;BME280;57790;51.356;-2.906;2023-05-18T01:45:19;102904.06;;;16.60;100.00
70370;BME280;57790;51.356;-2.906;2023-05-18T01:48:23;102899.84;;;16.58;100.00
70370;BME280;57790;51.356;-2.906;2023-05-18T01:51:28;102898.84;;;16.59;100.00
70370;BME280;57790;51.356;-2.906;2023-05-18T01:54:32;102905.03;;;16.59;100.00
70370;BME280;57790;51.356;-2.906;2023-05-18T01:57:36;102898.47;;;16.54;100.00
70370;BME280;57790;51.356;-2.906;2023-05-18T02:00:38;102898.47;;;16.54;100.00
70370;BME280;57790;51.356;-2.906;2023-05-18T02:03:38;102902.13;;;16.53;100.00
70370;BME280;57790;51.356;-2.906;2023-05-18T02:06:39;102897.78;;;16.52;100.00
70370;BME280;57790;51.356;-2.906;2023-05-18T02:09:39;102896.25;;;16.49;100.00
70370;BME280;57790;51.356;-2.906;2023-05-18T02:12:40;102893.69;;;16.48;100.00
70370;BME280;57790;51.356;-2.906;2023-05-18T02:15:40;102899.19;;;16.46;100.00
70370;BME280;57790;51.356;-2.906;2023-05-18T02:18:41;102892.84;;;16.47;100.00
70370;BME280;57790;51.356;-2.906;2023-05-18T02:21:42;102895.50;;;16.47;100.00
70370;BME280;57790;51.356;-2.906;2023-05-18T02:24:42;102900.31;;;16.44;100.00
70370;BME280;57790;51.356;-2.906;2023-05-18T02:27:45;102899.50;;;16.43;100.00
70370;BME280;57790;51.356;-2.906;2023-05-18T02:30:45;102896.97;;;16.42;100.00
70370;BME280;57790;51.356;-2.906;2023-05-18T02:33:46;102900.63;;;16.41;100.00
70370;BME280;57790;51.356;-2.906;2023-05-18T02:36:46;102897.25;;;16.39;100.00
70370;BME280;57790;51.356;-2.906;2023-05-18T02:39:47;102899.41;;;16.35;100.00
70370;BME280;57790;51.356;-2.906;2023-05-18T02:42:48;102894.31;;;16.32;100.00
70370;BME280;57790;51.356;-2.906;2023-05-18T02:45:49;102894.47;;;16.30;100.00
70370;BME280;57790;51.356;-2.906;2023-05-18T02:48:50;102892.38;;;16.24;100.00
70370;BME280;57790;51.356;-2.906;2023-05-18T02:51:50;102889.84;;;16.23;100.00
70370;BME280;57790;51.356;-2.906;2023-05-18T02:54:51;102882.81;;;16.22;100.00
70370;BME280;57790;51.356;-2.906;2023-05-18T02:57:53;102892.13;;;16.18;100.00
70370;BME280;57790;51.356;-2.906;2023-05-18T03:00:56;102889.88;;;16.13;100.00
70370;BME280;57790;51.356;-2.906;2023-05-18T03:03:58;102888.59;;;16.17;100.00
70370;BME280;57790;51.356;-2.906;2023-05-18T03:06:59;102890.72;;;16.14;100.00
70370;BME280;57790;51.356;-2.906;2023-05-18T03:10:02;102883.16;;;16.09;100.00
70370;BME280;57790;51.356;-2.906;2023-05-18T03:13:03;102888.66;;;16.08;100.00
70370;BME280;57790;51.356;-2.906;2023-05-18T03:16:03;102885.97;;;16.08;100.00
70370;BME280;57790;51.356;-2.906;2023-05-18T03:19:04;102885.13;;;16.07;100.00
70370;BME280;57790;51.356;-2.906;2023-05-18T03:22:05;102887.38;;;16.02;100.00
70370;BME280;57790;51.356;-2.906;2023-05-18T03:25:06;102883.16;;;15.99;100.00
70370;BME280;57790;51.356;-2.906;2023-05-18T03:28:06;102884.00;;;16.00;100.00
70370;BME280;57790;51.356;-2.906;2023-05-18T03:31:07;102871.22;;;15.94;100.00
70370;BME280;57790;51.356;-2.906;2023-05-18T03:34:07;102881.94;;;15.94;100.00
70370;BME280;57790;51.356;-2.906;2023-05-18T03:37:08;102882.06;;;15.92;100.00
70370;BME280;57790;51.356;-2.906;2023-05-18T03:40:14;102871.22;;;15.94;100.00
70370;BME280;57790;51.356;-2.906;2023-05-18T03:43:14;102887.44;;;15.92;100.00
70370;BME280;57790;51.356;-2.906;2023-05-18T03:46:15;102879.50;;;15.91;100.00
70370;BME280;57790;51.356;-2.906;2023-05-18T03:49:15;102884.75;;;15.92;100.00
70370;BME280;57790;51.356;-2.906;2023-05-18T03:52:15;102887.97;;;15.86;100.00
70370;BME280;57790;51.356;-2.906;2023-05-18T03:55:21;102893.63;;;15.83;100.00
70370;BME280;57790;51.356;-2.906;2023-05-18T03:58:21;102887.13;;;15.86;100.00
70370;BME280;57790;51.356;-2.906;2023-05-18T04:01:23;102896.44;;;15.82;100.00
70370;BME280;57790;51.356;-2.906;2023-05-18T04:04:23;102895.06;;;15.77;100.00
70370;BME280;57790;51.356;-2.906;2023-05-18T04:07:26;102889.41;;;15.81;100.00
70370;BME280;57790;51.356;-2.906;2023-05-18T04:10:26;102897.16;;;15.84;100.00
70370;BME280;57790;51.356;-2.906;2023-05-18T04:13:27;102894.47;;;15.84;100.00
70370;BME280;57790;51.356;-2.906;2023-05-18T04:16:27;102904.19;;;15.85;100.00
70370;BME280;57790;51.356;-2.906;2023-05-18T04:19:28;102902.09;;;15.79;100.00
70370;BME280;57790;51.356;-2.906;2023-05-18T04:22:29;102902.94;;;15.79;100.00
70370;BME280;57790;51.356;-2.906;2023-05-18T04:25:30;102906.59;;;15.78;100.00
70370;BME280;57790;51.356;-2.906;2023-05-18T04:28:31;102909.69;;;15.73;100.00
70370;BME280;57790;51.356;-2.906;2023-05-18T04:31:32;102903.50;;;15.73;100.00
70370;BME280;57790;51.356;-2.906;2023-05-18T04:34:34;102898.44;;;15.70;100.00
70370;BME280;57790;51.356;-2.906;2023-05-18T04:37:37;102896.75;;;15.69;100.00
70370;BME280;57790;51.356;-2.906;2023-05-18T04:40:39;102901.25;;;15.68;100.00
70370;BME280;57790;51.356;-2.906;2023-05-18T04:43:41;102900.69;;;15.65;100.00
70370;BME280;57790;51.356;-2.906;2023-05-18T04:46:43;102897.44;;;15.61;100.00
70370;BME280;57790;51.356;-2.906;2023-05-18T04:49:46;102896.00;;;15.57;100.00
70370;BME280;57790;51.356;-2.906;2023-05-18T04:52:49;102905.03;;;15.56;100.00
70370;BME280;57790;51.356;-2.906;2023-05-18T04:55:50;102904.63;;;15.51;100.00
70370;BME280;57790;51.356;-2.906;2023-05-18T04:58:52;102899.69;;;15.56;100.00
70370;BME280;57790;51.356;-2.906;2023-05-18T05:01:52;102907.00;;;15.54;100.00
70370;BME280;57790;51.356;-2.906;2023-05-18T05:04:53;102915.03;;;15.54;100.00
70370;BME280;57790;51.356;-2.906;2023-05-18T05:07:53;102914.88;;;15.56;100.00
70370;BME280;57790;51.356;-2.906;2023-05-18T05:10:55;102909.13;;;15.51;100.00
70370;BME280;57790;51.356;-2.906;2023-05-18T05:13:55;102914.63;;;15.49;100.00
70370;BME280;57790;51.356;-2.906;2023-05-18T05:16:58;102904.19;;;15.46;100.00
70370;BME280;57790;51.356;-2.906;2023-05-18T05:19:59;102905.16;;;15.45;100.00
70370;BME280;57790;51.356;-2.906;2023-05-18T05:22:59;102908.81;;;15.44;100.00
70370;BME280;57790;51.356;-2.906;2023-05-18T05:26:00;102915.59;;;15.48;100.00
70370;BME280;57790;51.356;-2.906;2023-05-18T05:29:01;102898.97;;;15.44;100.00
70370;BME280;57790;51.356;-2.906;2023-05-18T05:32:01;102905.44;;;15.42;100.00
70370;BME280;57790;51.356;-2.906;2023-05-18T05:35:02;102907.13;;;15.43;100.00
70370;BME280;57790;51.356;-2.906;2023-05-18T05:38:02;102903.47;;;15.44;100.00
70370;BME280;57790;51.356;-2.906;2023-05-18T05:41:03;102900.66;;;15.45;100.00
70370;BME280;57790;51.356;-2.906;2023-05-18T05:44:04;102904.91;;;15.48;100.00
70370;BME280;57790;51.356;-2.906;2023-05-18T05:47:05;102903.06;;;15.48;100.00
70370;BME280;57790;51.356;-2.906;2023-05-18T05:50:06;102897.44;;;15.52;100.00
70370;BME280;57790;51.356;-2.906;2023-05-18T05:53:06;102904.31;;;15.54;100.00
70370;BME280;57790;51.356;-2.906;2023-05-18T05:56:07;102904.63;;;15.51;100.00
70370;BME280;57790;51.356;-2.906;2023-05-18T05:59:07;102906.31;;;15.52;100.00
70370;BME280;57790;51.356;-2.906;2023-05-18T06:02:08;102904.19;;;15.56;100.00
70370;BME280;57790;51.356;-2.906;2023-05-18T06:05:08;102905.03;;;15.56;100.00
70370;BME280;57790;51.356;-2.906;2023-05-18T06:08:09;102905.16;;;15.55;100.00
70370;BME280;57790;51.356;-2.906;2023-05-18T06:11:10;102903.50;;;15.54;100.00
70370;BME280;57790;51.356;-2.906;2023-05-18T06:14:10;102906.00;;;15.55;100.00
70370;BME280;57790;51.356;-2.906;2023-05-18T06:17:11;102908.28;;;15.60;100.00
70370;BME280;57790;51.356;-2.906;2023-05-18T06:20:11;102916.16;;;15.61;100.00
70370;BME280;57790;51.356;-2.906;2023-05-18T06:23:12;102924.78;;;15.65;100.00
70370;BME280;57790;51.356;-2.906;2023-05-18T06:26:13;102931.94;;;15.64;100.00
70370;BME280;57790;51.356;-2.906;2023-05-18T06:29:13;102930.81;;;15.67;100.00
70370;BME280;57790;51.356;-2.906;2023-05-18T06:32:14;102928.13;;;15.67;100.00
70370;BME280;57790;51.356;-2.906;2023-05-18T06:35:14;102936.72;;;15.70;100.00
70370;BME280;57790;51.356;-2.906;2023-05-18T06:38:15;102941.78;;;15.73;100.00
70370;BME280;57790;51.356;-2.906;2023-05-18T06:41:15;102932.63;;;15.76;100.00
70370;BME280;57790;51.356;-2.906;2023-05-18T06:44:15;102935.03;;;15.79;100.00
70370;BME280;57790;51.356;-2.906;2023-05-18T06:47:16;102935.59;;;15.83;100.00
70370;BME280;57790;51.356;-2.906;2023-05-18T06:50:16;102938.81;;;15.86;100.00
70370;BME280;57790;51.356;-2.906;2023-05-18T06:53:16;102935.16;;;15.87;100.00
70370;BME280;57790;51.356;-2.906;2023-05-18T06:56:17;102940.09;;;15.92;100.00
70370;BME280;57790;51.356;-2.906;2023-05-18T06:59:18;102941.19;;;15.99;100.00
70370;BME280;57790;51.356;-2.906;2023-05-18T07:02:21;102941.88;;;16.01;100.00
70370;BME280;57790;51.356;-2.906;2023-05-18T07:05:23;102945.94;;;16.05;100.00
70370;BME280;57790;51.356;-2.906;2023-05-18T07:08:23;102949.06;;;16.10;100.00
70370;BME280;57790;51.356;-2.906;2023-05-18T07:11:24;102951.00;;;16.18;100.00
70370;BME280;57790;51.356;-2.906;2023-05-18T07:14:25;102944.38;;;16.22;100.00
70370;BME280;57790;51.356;-2.906;2023-05-18T07:17:25;102939.09;;;16.40;100.00
70370;BME280;57790;51.356;-2.906;2023-05-18T07:20:26;102940.19;;;16.47;100.00
70370;BME280;57790;51.356;-2.906;2023-05-18T07:23:26;102944.44;;;16.49;100.00
70370;BME280;57790;51.356;-2.906;2023-05-18T07:26:27;102942.16;;;16.54;100.00
70370;BME280;57790;51.356;-2.906;2023-05-18T07:29:29;102945.38;;;16.58;100.00
70370;BME280;57790;51.356;-2.906;2023-05-18T07:32:29;102947.75;;;16.61;100.00
70370;BME280;57790;51.356;-2.906;2023-05-18T07:35:30;102949.16;;;16.65;100.00
70370;BME280;57790;51.356;-2.906;2023-05-18T07:38:30;102942.81;;;16.66;100.00
70370;BME280;57790;51.356;-2.906;2023-05-18T07:41:30;102951.41;;;16.70;100.00
70370;BME280;57790;51.356;-2.906;2023-05-18T07:44:31;102950.28;;;16.72;100.00
70370;BME280;57790;51.356;-2.906;2023-05-18T07:47:32;102956.00;;;16.77;100.00
70370;BME280;57790;51.356;-2.906;2023-05-18T07:50:32;102959.69;;;16.76;100.00
70370;BME280;57790;51.356;-2.906;2023-05-18T07:53:33;102954.47;;;16.75;100.00
70370;BME280;57790;51.356;-2.906;2023-05-18T07:56:34;102955.63;;;16.72;100.00
70370;BME280;57790;51.356;-2.906;2023-05-18T07:59:35;102956.16;;;16.76;100.00
70370;BME280;57790;51.356;-2.906;2023-05-18T08:02:35;102947.84;;;16.79;100.00
70370;BME280;57790;51.356;-2.906;2023-05-18T08:05:36;102956.44;;;16.82;100.00
70370;BME280;57790;51.356;-2.906;2023-05-18T08:08:37;102956.13;;;16.85;100.00
70370;BME280;57790;51.356;-2.906;2023-05-18T08:11:37;102952.16;;;16.89;100.00
70370;BME280;57790;51.356;-2.906;2023-05-18T08:14:38;102953.56;;;16.93;100.00
70370;BME280;57790;51.356;-2.906;2023-05-18T08:17:38;102955.94;;;16.97;100.00
70370;BME280;57790;51.356;-2.906;2023-05-18T08:20:38;102963.34;;;17.03;100.00
70370;BME280;57790;51.356;-2.906;2023-05-18T08:23:39;102961.22;;;17.06;100.00
70370;BME280;57790;51.356;-2.906;2023-05-18T08:26:39;102960.63;;;17.12;100.00
70370;BME280;57790;51.356;-2.906;2023-05-18T08:29:40;102960.16;;;17.17;100.00
70370;BME280;57790;51.356;-2.906;2023-05-18T08:32:40;102953.50;;;17.21;100.00
70370;BME280;57790;51.356;-2.906;2023-05-18T08:35:41;102949.53;;;17.25;100.00
70370;BME280;57790;51.356;-2.906;2023-05-18T08:38:41;102958.28;;;17.27;100.00
70370;BME280;57790;51.356;-2.906;2023-05-18T08:42:00;102950.06;;;17.29;100.00
70370;BME280;57790;51.356;-2.906;2023-05-18T08:45:10;102948.34;;;17.37;100.00
70370;BME280;57790;51.356;-2.906;2023-05-18T08:48:14;102948.84;;;17.41;100.00
70370;BME280;57790;51.356;-2.906;2023-05-18T08:51:20;102945.41;;;17.48;100.00
70370;BME280;57790;51.356;-2.906;2023-05-18T08:54:21;102938.91;;;17.51;100.00
70370;BME280;57790;51.356;-2.906;2023-05-18T08:57:21;102936.75;;;17.54;100.00
70370;BME280;57790;51.356;-2.906;2023-05-18T09:00:23;102943.31;;;17.60;100.00
70370;BME280;57790;51.356;-2.906;2023-05-18T09:03:24;102948.53;;;17.62;100.00
70370;BME280;57790;51.356;-2.906;2023-05-18T09:06:24;102936.66;;;17.64;100.00
70370;BME280;57790;51.356;-2.906;2023-05-18T09:09:25;102937.44;;;17.74;100.00
70370;BME280;57790;51.356;-2.906;2023-05-18T09:12:27;102939.66;;;17.79;100.00
70370;BME280;57790;51.356;-2.906;2023-05-18T09:15:27;102935.69;;;17.83;100.00
70370;BME280;57790;51.356;-2.906;2023-05-18T09:18:28;102937.19;;;17.86;100.00
70370;BME280;57790;51.356;-2.906;2023-05-18T09:21:30;102928.50;;;17.92;100.00
70370;BME280;57790;51.356;-2.906;2023-05-18T09:24:32;102932.59;;;17.96;100.00
70370;BME280;57790;51.356;-2.906;2023-05-18T09:27:33;102937.16;;;18.03;100.00
70370;BME280;57790;51.356;-2.906;2023-05-18T09:30:41;102937.53;;;18.08;100.00
70370;BME280;57790;51.356;-2.906;2023-05-18T09:33:42;102935.22;;;18.13;100.00
70370;BME280;57790;51.356;-2.906;2023-05-18T09:36:46;102936.25;;;18.21;100.00
70370;BME280;57790;51.356;-2.906;2023-05-18T09:40:03;102932.09;;;18.26;100.00
70370;BME280;57790;51.356;-2.906;2023-05-18T09:43:07;102943.38;;;18.30;100.00
70370;BME280;57790;51.356;-2.906;2023-05-18T09:46:08;102937.66;;;18.33;100.00
70370;BME280;57790;51.356;-2.906;2023-05-18T09:49:09;102939.34;;;18.34;100.00
70370;BME280;57790;51.356;-2.906;2023-05-18T09:52:09;102936.22;;;18.38;100.00
70370;BME280;57790;51.356;-2.906;2023-05-18T09:55:11;102939.75;;;18.47;100.00
70370;BME280;57790;51.356;-2.906;2023-05-18T09:58:11;102939.75;;;18.47;100.00
70370;BME280;57790;51.356;-2.906;2023-05-18T10:01:12;102935.22;;;18.48;100.00
70370;BME280;57790;51.356;-2.906;2023-05-18T10:04:12;102939.31;;;18.52;100.00
70370;BME280;57790;51.356;-2.906;2023-05-18T10:07:15;102937.47;;;18.52;100.00
70370;BME280;57790;51.356;-2.906;2023-05-18T10:10:17;102946.19;;;18.54;100.00
70370;BME280;57790;51.356;-2.906;2023-05-18T10:13:18;102944.69;;;18.60;100.00
70370;BME280;57790;51.356;-2.906;2023-05-18T10:16:19;102943.84;;;18.59;100.00
70370;BME280;57790;51.356;-2.906;2023-05-18T10:19:22;102943.53;;;18.62;100.00
70370;BME280;57790;51.356;-2.906;2023-05-18T10:22:25;102948.31;;;18.68;100.00
70370;BME280;57790;51.356;-2.906;2023-05-18T10:25:28;102951.66;;;18.70;100.00
70370;BME280;57790;51.356;-2.906;2023-05-18T10:28:41;102949.66;;;18.72;100.00
70370;BME280;57790;51.356;-2.906;2023-05-18T10:31:43;102953.00;;;18.75;100.00
70370;BME280;57790;51.356;-2.906;2023-05-18T10:34:45;102947.16;;;18.79;100.00
70370;BME280;57790;51.356;-2.906;2023-05-18T10:37:46;102951.06;;;18.85;100.00
70370;BME280;57790;51.356;-2.906;2023-05-18T10:40:49;102947.34;;;18.86;100.00
70370;BME280;57790;51.356;-2.906;2023-05-18T10:43:52;102941.16;;;18.93;100.00
70370;BME280;57790;51.356;-2.906;2023-05-18T10:46:54;102944.53;;;18.95;100.00
70370;BME280;57790;51.356;-2.906;2023-05-18T10:49:57;102948.41;;;19.01;100.00
70370;BME280;57790;51.356;-2.906;2023-05-18T10:52:58;102937.81;;;19.08;100.00
70370;BME280;57790;51.356;-2.906;2023-05-18T10:56:00;102938.88;;;19.15;100.00
70370;BME280;57790;51.356;-2.906;2023-05-18T10:59:02;102939.03;;;19.21;100.00
70370;BME280;57790;51.356;-2.906;2023-05-18T11:02:03;102946.63;;;19.26;100.00
70370;BME280;57790;51.356;-2.906;2023-05-18T11:05:05;102943.09;;;19.33;100.00
70370;BME280;57790;51.356;-2.906;2023-05-18T11:08:05;102940.75;;;19.39;100.00
70370;BME280;57790;51.356;-2.906;2023-05-18T11:11:06;102950.34;;;19.41;100.00
70370;BME280;57790;51.356;-2.906;2023-05-18T11:14:08;102947.47;;;19.43;100.00
70370;BME280;57790;51.356;-2.906;2023-05-18T11:17:21;102945.97;;;19.48;100.00
70370;BME280;57790;51.356;-2.906;2023-05-18T11:20:24;102938.97;;;19.55;100.00
70370;BME280;57790;51.356;-2.906;2023-05-18T11:23:24;102945.00;;;19.57;100.00
70370;BME280;57790;51.356;-2.906;2023-05-18T11:26:27;102948.19;;;19.61;100.00
70370;BME280;57790;51.356;-2.906;2023-05-18T11:29:34;102944.31;;;19.64;100.00
70370;BME280;57790;51.356;-2.906;2023-05-18T11:32:34;102949.53;;;19.73;100.00
70370;BME280;57790;51.356;-2.906;2023-05-18T11:39:03;102947.00;;;19.80;100.00
70370;BME280;57790;51.356;-2.906;2023-05-18T11:42:06;102940.97;;;19.86;100.00
70370;BME280;57790;51.356;-2.906;2023-05-18T11:45:11;102934.88;;;19.92;100.00
70370;BME280;57790;51.356;-2.906;2023-05-18T11:48:12;102933.69;;;19.95;100.00
70370;BME280;57790;51.356;-2.906;2023-05-18T11:51:12;102934.06;;;20.00;100.00
70370;BME280;57790;51.356;-2.906;2023-05-18T11:54:13;102931.69;;;20.05;100.00
70370;BME280;57790;51.356;-2.906;2023-05-18T11:57:14;102932.69;;;20.04;100.00
70370;BME280;57790;51.356;-2.906;2023-05-18T12:00:15;102924.25;;;20.07;100.00
70370;BME280;57790;51.356;-2.906;2023-05-18T12:03:18;102927.97;;;20.14;100.00
70370;BME280;57790;51.356;-2.906;2023-05-18T12:06:23;102927.09;;;20.21;100.00
70370;BME280;57790;51.356;-2.906;2023-05-18T12:09:24;102932.13;;;20.25;100.00
70370;BME280;57790;51.356;-2.906;2023-05-18T12:12:26;102924.56;;;20.28;100.00
70370;BME280;57790;51.356;-2.906;2023-05-18T12:15:27;102918.81;;;20.31;100.00
70370;BME280;57790;51.356;-2.906;2023-05-18T12:18:28;102916.13;;;20.31;100.00
70370;BME280;57790;51.356;-2.906;2023-05-18T12:21:39;102910.56;;;20.33;100.00
70370;BME280;57790;51.356;-2.906;2023-05-18T12:24:41;102913.06;;;20.34;100.00
70370;BME280;57790;51.356;-2.906;2023-05-18T12:27:43;102906.66;;;20.35;100.00
70370;BME280;57790;51.356;-2.906;2023-05-18T12:30:43;102909.72;;;20.40;100.00
70370;BME280;57790;51.356;-2.906;2023-05-18T12:33:44;102911.06;;;20.44;100.00
70370;BME280;57790;51.356;-2.906;2023-05-18T12:36:51;102901.97;;;20.45;100.00
70370;BME280;57790;51.356;-2.906;2023-05-18T12:39:52;102906.34;;;20.46;100.00
70370;BME280;57790;51.356;-2.906;2023-05-18T12:42:57;102907.84;;;20.49;100.00
70370;BME280;57790;51.356;-2.906;2023-05-18T12:46:04;102898.03;;;20.56;100.00
70370;BME280;57790;51.356;-2.906;2023-05-18T12:49:04;102895.16;;;20.58;100.00
70370;BME280;57790;51.356;-2.906;2023-05-18T12:55:16;102892.75;;;20.71;100.00
70370;BME280;57790;51.356;-2.906;2023-05-18T12:58:19;102885.50;;;20.71;100.00
70370;BME280;57790;51.356;-2.906;2023-05-18T13:01:20;102878.06;;;20.73;100.00
70370;BME280;57790;51.356;-2.906;2023-05-18T13:04:21;102878.84;;;20.82;100.00
70370;BME280;57790;51.356;-2.906;2023-05-18T13:07:25;102877.84;;;20.83;100.00
70370;BME280;57790;51.356;-2.906;2023-05-18T13:10:28;102881.22;;;20.85;100.00
70370;BME280;57790;51.356;-2.906;2023-05-18T13:13:30;102884.69;;;20.94;100.00
70370;BME280;57790;51.356;-2.906;2023-05-18T13:16:38;102879.28;;;20.94;100.00
70370;BME280;57790;51.356;-2.906;2023-05-18T13:19:38;102881.97;;;20.94;100.00
70370;BME280;57790;51.356;-2.906;2023-05-18T13:22:38;102869.84;;;20.98;100.00
70370;BME280;57790;51.356;-2.906;2023-05-18T13:25:40;102881.09;;;21.01;100.00
70370;BME280;57790;51.356;-2.906;2023-05-18T13:28:40;102877.38;;;21.02;100.00
70370;BME280;57790;51.356;-2.906;2023-05-18T13:31:41;102874.88;;;21.01;100.00
70370;BME280;57790;51.356;-2.906;2023-05-18T13:34:41;102869.28;;;21.02;100.00
70370;BME280;57790;51.356;-2.906;2023-05-18T13:37:42;102874.13;;;21.07;100.00
70370;BME280;57790;51.356;-2.906;2023-05-18T13:40:42;102874.28;;;21.14;100.00
70370;BME280;57790;51.356;-2.906;2023-05-18T13:43:43;102866.84;;;21.16;100.00
70370;BME280;57790;51.356;-2.906;2023-05-18T13:46:43;102868.63;;;21.23;100.00
70370;BME280;57790;51.356;-2.906;2023-05-18T13:49:43;102871.84;;;21.27;100.00
70370;BME280;57790;51.356;-2.906;2023-05-18T13:52:44;102867.28;;;21.27;100.00
70370;BME280;57790;51.356;-2.906;2023-05-18T13:55:45;102863.38;;;21.30;100.00
70370;BME280;57790;51.356;-2.906;2023-05-18T13:58:46;102854.94;;;21.33;100.00
70370;BME280;57790;51.356;-2.906;2023-05-18T14:01:46;102866.38;;;21.35;100.00
70370;BME280;57790;51.356;-2.906;2023-05-18T14:04:46;102859.78;;;21.37;100.00
70370;BME280;57790;51.356;-2.906;2023-05-18T14:07:47;102865.66;;;21.41;100.00
70370;BME280;57790;51.356;-2.906;2023-05-18T14:10:47;102860.53;;;21.46;100.00
70370;BME280;57790;51.356;-2.906;2023-05-18T14:13:48;102863.00;;;21.56;100.00
70370;BME280;57790;51.356;-2.906;2023-05-18T14:16:49;102861.13;;;21.56;100.00
70370;BME280;57790;51.356;-2.906;2023-05-18T14:19:50;102858.53;;;21.63;100.00
70370;BME280;57790;51.356;-2.906;2023-05-18T14:22:50;102857.31;;;21.65;100.00
70370;BME280;57790;51.356;-2.906;2023-05-18T14:25:51;102861.50;;;21.68;100.00
70370;BME280;57790;51.356;-2.906;2023-05-18T14:28:51;102856.28;;;21.66;100.00
70370;BME280;57790;51.356;-2.906;2023-05-18T14:31:52;102863.75;;;21.64;100.00
70370;BME280;57790;51.356;-2.906;2023-05-18T14:34:52;102853.59;;;21.66;100.00
70370;BME280;57790;51.356;-2.906;2023-05-18T14:37:54;102854.63;;;21.65;100.00
70370;BME280;57790;51.356;-2.906;2023-05-18T14:40:55;102841.56;;;21.69;100.00
70370;BME280;57790;51.356;-2.906;2023-05-18T14:43:55;102848.69;;;21.70;100.00
70370;BME280;57790;51.356;-2.906;2023-05-18T14:46:56;102845.31;;;21.68;100.00
70370;BME280;57790;51.356;-2.906;2023-05-18T14:49:56;102849.03;;;21.67;100.00
70370;BME280;57790;51.356;-2.906;2023-05-18T14:52:56;102829.94;;;21.68;100.00
70370;BME280;57790;51.356;-2.906;2023-05-18T14:55:57;102831.28;;;21.73;100.00
70370;BME280;57790;51.356;-2.906;2023-05-18T14:58:58;102835.00;;;21.72;100.00
70370;BME280;57790;51.356;-2.906;2023-05-18T15:01:58;102838.16;;;21.75;100.00
70370;BME280;57790;51.356;-2.906;2023-05-18T15:04:59;102838.16;;;21.75;100.00
70370;BME280;57790;51.356;-2.906;2023-05-18T15:08:00;102831.09;;;21.74;100.00
70370;BME280;57790;51.356;-2.906;2023-05-18T15:11:00;102828.56;;;21.73;100.00
70370;BME280;57790;51.356;-2.906;2023-05-18T15:14:01;102831.28;;;21.73;100.00
70370;BME280;57790;51.356;-2.906;2023-05-18T15:17:01;102831.94;;;21.75;100.00
70370;BME280;57790;51.356;-2.906;2023-05-18T15:20:01;102821.13;;;21.75;100.00
70370;BME280;57790;51.356;-2.906;2023-05-18T15:23:02;102821.97;;;21.75;100.00
70370;BME280;57790;51.356;-2.906;2023-05-18T15:26:03;102817.00;;;21.79;100.00
70370;BME280;57790;51.356;-2.906;2023-05-18T15:29:03;102822.59;;;21.77;100.00
70370;BME280;57790;51.356;-2.906;2023-05-18T15:32:04;102821.19;;;21.81;100.00
70370;BME280;57790;51.356;-2.906;2023-05-18T15:35:05;102821.00;;;21.83;100.00
70370;BME280;57790;51.356;-2.906;2023-05-18T15:38:06;102814.25;;;21.87;100.00